Time;durP1;ratioP1;P1;durP2;ratioP2;P2;SDS_P1;SDS_P2;PMS_P1;PMS_P2;Temp;Humidity;BMP_temperature;BMP_pressure;BME280_temperature;BME280_humidity;BME280_pressure;Samples;Min_cycle;Max_cycle;Signal;HPM_P1;HPM_P2
2023/01/20 00:00:44;;;;;;;19.70;17.40;;;;;20.50;99913.00;;;;2085133;28;20216;-68
2023/01/20 00:01:47;;;;;;;19.57;17.53;;;;;20.50;99906.00;;;;2084383;28;20232;-66
2023/01/20 00:02:48;;;;;;;21.75;18.70;;;;;20.50;99911.00;;;;2084238;28;20711;-67
2023/01/20 00:03:49;;;;;;;20.90;16.07;;;;;20.40;99900.00;;;;2083296;28;20244;-67
2023/01/20 00:04:49;;;;;;;21.52;16.85;;;;;20.40;99909.00;;;;2082485;28;20225;-67
2023/01/20 00:05:50;;;;;;;19.77;16.87;;;;;20.40;99902.00;;;;2084981;28;20260;-67
2023/01/20 00:06:51;;;;;;;20.90;18.70;;;;;20.40;99906.00;;;;2074660;28;20263;-67
2023/01/20 00:07:51;;;;;;;20.53;15.67;;;;;20.40;99913.00;;;;2084063;28;20646;-67
2023/01/20 00:08:51;;;;;;;22.03;17.93;;;;;20.40;99912.00;;;;2084000;28;20614;-67
2023/01/20 00:09:52;;;;;;;19.50;17.40;;;;;20.40;99918.00;;;;2084170;28;20608;-67
2023/01/20 00:10:52;;;;;;;19.60;16.50;;;;;20.40;99922.00;;;;2084265;28;20213;-67
2023/01/20 00:11:53;;;;;;;18.70;16.73;;;;;20.40;99918.00;;;;2084323;28;20240;-67
2023/01/20 00:12:53;;;;;;;23.07;17.50;;;;;20.40;99912.00;;;;2087340;28;20233;-67
2023/01/20 00:13:57;;;;;;;18.67;15.77;;;;;20.40;99918.00;;;;2084848;28;20209;-67
2023/01/20 00:14:58;;;;;;;19.02;17.02;;;;;20.40;99919.00;;;;2084191;28;20247;-67
2023/01/20 00:16:00;;;;;;;19.00;16.67;;;;;20.40;99924.00;;;;2086899;28;20994;-68
2023/01/20 00:17:00;;;;;;;18.30;16.35;;;;;20.40;99917.00;;;;2076159;28;20221;-67
2023/01/20 00:18:01;;;;;;;16.90;15.07;;;;;20.40;99919.00;;;;2075169;28;20272;-67
2023/01/20 00:19:01;;;;;;;19.00;15.60;;;;;20.30;99914.00;;;;2084061;28;20223;-67
2023/01/20 00:20:02;;;;;;;19.00;15.97;;;;;20.40;99916.00;;;;2084215;28;20212;-67
2023/01/20 00:21:10;;;;;;;18.67;15.65;;;;;20.30;99916.00;;;;2084325;28;20225;-67
2023/01/20 00:22:10;;;;;;;18.70;16.30;;;;;20.30;99921.00;;;;2076865;28;20271;-67
2023/01/20 00:23:10;;;;;;;17.20;15.50;;;;;20.30;99916.00;;;;2080614;28;20218;-67
2023/01/20 00:24:11;;;;;;;18.07;16.17;;;;;20.30;99923.00;;;;2083651;28;20232;-67
2023/01/20 00:25:11;;;;;;;21.03;15.93;;;;;20.30;99920.00;;;;2074801;28;21897;-70
2023/01/20 00:26:13;;;;;;;17.40;15.53;;;;;20.30;99926.00;;;;2084202;28;20220;-69
2023/01/20 00:27:14;;;;;;;17.38;15.38;;;;;20.30;99922.00;;;;2084167;28;20221;-67
2023/01/20 00:28:15;;;;;;;18.13;16.13;;;;;20.30;99924.00;;;;2083611;28;20609;-67
2023/01/20 00:29:16;;;;;;;17.17;14.68;;;;;20.30;99923.00;;;;2084732;28;20336;-67
2023/01/20 00:30:16;;;;;;;18.10;15.03;;;;;20.30;99928.00;;;;2085079;28;21010;-67
2023/01/20 00:31:28;;;;;;;17.50;15.77;;;;;20.30;99922.00;;;;2085191;28;20220;-67
2023/01/20 00:32:28;;;;;;;16.15;14.52;;;;;20.30;99926.00;;;;2084335;28;20205;-67
2023/01/20 00:33:29;;;;;;;17.50;15.60;;;;;20.30;99924.00;;;;2085468;28;20240;-67
2023/01/20 00:34:29;;;;;;;15.00;13.50;;;;;20.20;99929.00;;;;2084320;28;20297;-67
2023/01/20 00:35:29;;;;;;;16.03;14.33;;;;;20.20;99932.00;;;;2084675;28;20296;-67
2023/01/20 00:36:30;;;;;;;16.60;14.90;;;;;20.20;99932.00;;;;2085202;28;20210;-67
2023/01/20 00:37:30;;;;;;;16.63;15.03;;;;;20.20;99932.00;;;;2084859;28;20220;-67
2023/01/20 00:38:31;;;;;;;16.73;13.97;;;;;20.20;99931.00;;;;2084894;28;20448;-67
2023/01/20 00:39:31;;;;;;;15.90;14.20;;;;;20.20;99937.00;;;;2084905;28;20227;-67
2023/01/20 00:40:31;;;;;;;15.60;14.03;;;;;20.20;99934.00;;;;2084446;28;20238;-67
2023/01/20 00:41:32;;;;;;;14.90;13.40;;;;;20.20;99937.00;;;;2082257;28;20212;-67
2023/01/20 00:42:32;;;;;;;16.20;14.57;;;;;20.20;99932.00;;;;2083527;28;20201;-67
2023/01/20 00:43:32;;;;;;;16.30;14.60;;;;;20.20;99946.00;;;;2083432;28;20424;-67
2023/01/20 00:44:33;;;;;;;16.37;14.67;;;;;20.20;99935.00;;;;2083476;28;20241;-67
2023/01/20 00:45:33;;;;;;;15.80;14.20;;;;;20.20;99941.00;;;;2084204;28;24918;-67
2023/01/20 00:46:33;;;;;;;15.30;13.70;;;;;20.20;99934.00;;;;2084896;28;20224;-67
2023/01/20 00:47:34;;;;;;;18.20;14.63;;;;;20.20;99953.00;;;;2084802;28;20236;-67
2023/01/20 00:48:34;;;;;;;13.80;12.43;;;;;20.10;99944.00;;;;2081246;28;20222;-67
2023/01/20 00:49:34;;;;;;;14.07;12.73;;;;;20.10;99952.00;;;;2084336;28;20226;-67
2023/01/20 00:50:35;;;;;;;14.73;13.30;;;;;20.10;99948.00;;;;2085043;28;20225;-67
2023/01/20 00:51:35;;;;;;;15.83;13.77;;;;;20.10;99947.00;;;;2085145;28;20231;-67
2023/01/20 00:52:35;;;;;;;15.40;13.57;;;;;20.10;99947.00;;;;2084930;28;20209;-66
2023/01/20 00:53:36;;;;;;;16.33;13.10;;;;;20.20;99949.00;;;;2084283;28;20240;-67
2023/01/20 00:54:36;;;;;;;15.40;13.80;;;;;20.10;99947.00;;;;2083962;28;20212;-67
2023/01/20 00:55:36;;;;;;;15.60;13.93;;;;;20.10;99946.00;;;;2084036;28;20217;-67
2023/01/20 00:56:37;;;;;;;14.43;13.00;;;;;20.10;99948.00;;;;2084071;28;20209;-67
2023/01/20 00:57:37;;;;;;;15.10;13.50;;;;;20.10;99948.00;;;;2084494;28;20214;-67
2023/01/20 00:58:41;;;;;;;15.23;13.57;;;;;20.10;99957.00;;;;2084587;28;20241;-67
2023/01/20 00:59:41;;;;;;;16.50;12.60;;;;;20.10;99946.00;;;;2084846;28;20760;-67
2023/01/20 01:00:42;;;;;;;14.30;12.90;;;;;20.10;99945.00;;;;2084849;28;20217;-67
2023/01/20 01:01:42;;;;;;;15.00;13.27;;;;;20.10;99958.00;;;;2083277;28;20227;-67
2023/01/20 01:02:42;;;;;;;13.30;11.90;;;;;20.10;99944.00;;;;2083354;28;20227;-67
2023/01/20 01:03:43;;;;;;;16.00;14.30;;;;;20.10;99952.00;;;;2076297;28;20229;-67
2023/01/20 01:04:43;;;;;;;14.53;13.13;;;;;20.10;99954.00;;;;2091372;28;20255;-67
2023/01/20 01:05:43;;;;;;;15.33;13.80;;;;;20.00;99947.00;;;;2088216;28;20271;-67
2023/01/20 01:06:44;;;;;;;14.60;13.03;;;;;20.00;99954.00;;;;2083748;28;20629;-67
2023/01/20 01:07:44;;;;;;;14.67;12.83;;;;;20.00;99950.00;;;;2083414;28;20227;-67
2023/01/20 01:08:44;;;;;;;14.20;12.80;;;;;20.00;99952.00;;;;2083563;28;20218;-67
2023/01/20 01:09:45;;;;;;;15.23;12.80;;;;;20.00;99959.00;;;;2084238;28;20220;-67
2023/01/20 01:10:45;;;;;;;13.40;12.10;;;;;20.00;99942.00;;;;2084574;28;20209;-67
2023/01/20 01:11:46;;;;;;;13.90;12.50;;;;;20.00;99953.00;;;;2084644;28;20243;-67
2023/01/20 01:12:46;;;;;;;12.83;11.53;;;;;20.00;99947.00;;;;2084305;28;20268;-67
2023/01/20 01:13:46;;;;;;;15.50;13.90;;;;;20.00;99959.00;;;;2083576;28;20286;-67
2023/01/20 01:14:47;;;;;;;14.10;12.60;;;;;20.00;99958.00;;;;2083749;28;20227;-67
2023/01/20 01:15:48;;;;;;;14.17;12.77;;;;;20.00;99959.00;;;;2083808;28;20213;-67
2023/01/20 01:16:48;;;;;;;14.05;12.60;;;;;20.00;99959.00;;;;2084046;28;20213;-67
2023/01/20 01:17:51;;;;;;;14.20;12.80;;;;;20.00;99952.00;;;;2082813;28;20589;-70
2023/01/20 01:18:53;;;;;;;12.98;11.73;;;;;20.00;99942.00;;;;2084423;28;20762;-67
2023/01/20 01:19:54;;;;;;;14.40;12.95;;;;;20.00;99958.00;;;;2084542;28;20244;-67
2023/01/20 01:20:54;;;;;;;14.70;13.20;;;;;20.00;99955.00;;;;2084535;28;20224;-67
2023/01/20 01:21:54;;;;;;;14.10;12.70;;;;;20.00;99962.00;;;;2083050;28;20366;-67
2023/01/20 01:22:55;;;;;;;14.17;12.73;;;;;20.00;99943.00;;;;2074774;28;20220;-67
2023/01/20 01:23:55;;;;;;;14.73;13.30;;;;;19.90;99964.00;;;;2074750;28;20213;-67
2023/01/20 01:24:55;;;;;;;13.90;12.50;;;;;19.90;99957.00;;;;2082638;28;20252;-67
2023/01/20 01:25:55;;;;;;;14.27;12.87;;;;;19.90;99960.00;;;;2083769;28;20220;-67
2023/01/20 01:26:56;;;;;;;14.70;13.30;;;;;19.90;99957.00;;;;2084434;28;20221;-68
2023/01/20 01:27:56;;;;;;;14.53;13.20;;;;;19.90;99961.00;;;;2084113;28;20255;-67
2023/01/20 01:28:58;;;;;;;13.80;12.40;;;;;19.90;99962.00;;;;2084232;28;21042;-67
2023/01/20 01:29:58;;;;;;;14.35;12.90;;;;;19.90;99968.00;;;;2084185;28;20216;-67
2023/01/20 01:31:00;;;;;;;13.40;12.07;;;;;20.00;99959.00;;;;2083516;28;20213;-67
2023/01/20 01:32:00;;;;;;;14.38;12.95;;;;;19.90;99961.00;;;;2083002;28;20715;-67
2023/01/20 01:33:01;;;;;;;13.83;12.43;;;;;19.90;99965.00;;;;2085764;28;20221;-67
2023/01/20 01:34:01;;;;;;;13.77;12.47;;;;;19.90;99964.00;;;;2083943;28;20339;-67
2023/01/20 01:35:01;;;;;;;14.93;13.33;;;;;19.90;99968.00;;;;2083497;28;20252;-67
2023/01/20 01:36:02;;;;;;;14.20;12.70;;;;;19.90;99961.00;;;;2083666;28;20695;-67
2023/01/20 01:37:02;;;;;;;12.97;11.67;;;;;19.90;99964.00;;;;2083489;28;20209;-67
2023/01/20 01:38:03;;;;;;;14.13;12.73;;;;;19.90;99964.00;;;;2083254;28;20910;-67
2023/01/20 01:39:03;;;;;;;12.43;11.23;;;;;19.90;99977.00;;;;2084263;28;20773;-67
2023/01/20 01:40:04;;;;;;;14.03;12.67;;;;;19.80;99972.00;;;;2078000;28;20980;-67
2023/01/20 01:41:04;;;;;;;13.87;12.47;;;;;19.80;99974.00;;;;2084520;28;20707;-67
2023/01/20 01:42:15;;;;;;;13.20;11.90;;;;;19.90;99978.00;;;;2083743;28;20819;-67
2023/01/20 01:43:22;;;;;;;15.85;14.20;;;;;19.90;99974.00;;;;2083024;28;20239;-67
2023/01/20 01:44:24;;;;;;;13.88;12.52;;;;;19.80;99973.00;;;;2081028;28;20228;-67
2023/01/20 01:45:26;;;;;;;14.30;13.00;;;;;19.80;99951.00;;;;2082280;28;20700;-67
2023/01/20 01:46:27;;;;;;;14.45;12.93;;;;;19.80;99975.00;;;;2074578;28;20222;-67
2023/01/20 01:47:27;;;;;;;14.00;12.70;;;;;19.80;99991.00;;;;2066310;28;20704;-67
2023/01/20 01:48:28;;;;;;;13.53;12.17;;;;;19.80;99979.00;;;;2082306;28;20217;-67
2023/01/20 01:49:29;;;;;;;13.50;12.20;;;;;19.80;99987.00;;;;2082532;28;20287;-67
2023/01/20 01:50:41;;;;;;;14.30;12.90;;;;;19.80;99979.00;;;;2080207;28;20243;-67
2023/01/20 01:51:50;;;;;;;13.90;12.50;;;;;19.80;99989.00;;;;2082814;28;20307;-67
2023/01/20 01:52:51;;;;;;;13.55;12.25;;;;;19.80;99984.00;;;;2075641;28;20304;-67
2023/01/20 01:53:56;;;;;;;14.23;12.70;;;;;19.80;99987.00;;;;2075510;28;20678;-67
2023/01/20 01:54:57;;;;;;;13.63;12.18;;;;;19.80;99982.00;;;;2052955;28;20242;-67
2023/01/20 01:55:58;;;;;;;14.80;13.40;;;;;19.80;99982.00;;;;2070306;28;20325;-67
2023/01/20 01:56:59;;;;;;;13.50;12.20;;;;;19.60;99984.00;;;;2082034;28;20220;-67
2023/01/20 01:57:59;;;;;;;14.17;12.67;;;;;19.80;99982.00;;;;2072901;28;20213;-67
2023/01/20 01:59:00;;;;;;;12.73;11.50;;;;;19.80;99987.00;;;;2073541;28;20217;-67
2023/01/20 02:00:02;;;;;;;14.57;13.07;;;;;19.80;99981.00;;;;2058075;28;20849;-67
2023/01/20 02:01:02;;;;;;;13.40;12.00;;;;;19.80;99983.00;;;;2065870;28;21061;-67
2023/01/20 02:02:03;;;;;;;14.33;12.83;;;;;19.70;99990.00;;;;2083052;28;20537;-67
2023/01/20 02:03:03;;;;;;;14.50;13.10;;;;;19.70;99986.00;;;;2083188;28;20217;-67
2023/01/20 02:04:09;;;;;;;13.77;12.30;;;;;19.70;99981.00;;;;2075549;28;20224;-67
2023/01/20 02:05:10;;;;;;;12.65;11.35;;;;;19.70;99986.00;;;;2074467;28;20261;-67
2023/01/20 02:06:11;;;;;;;13.10;11.80;;;;;19.70;99996.00;;;;2074127;28;20217;-67
2023/01/20 02:07:14;;;;;;;13.30;11.90;;;;;19.70;99994.00;;;;2082046;28;21261;-67
2023/01/20 02:08:14;;;;;;;14.55;13.10;;;;;19.70;100005.00;;;;2082121;28;20213;-67
2023/01/20 02:09:15;;;;;;;13.47;11.97;;;;;19.70;99991.00;;;;2083418;28;20696;-67
2023/01/20 02:10:15;;;;;;;13.80;12.40;;;;;19.70;99993.00;;;;2084267;28;20693;-67
2023/01/20 02:11:16;;;;;;;13.80;12.50;;;;;19.70;99994.00;;;;2083485;28;20715;-67
2023/01/20 02:12:18;;;;;;;13.30;12.07;;;;;19.70;99993.00;;;;2083343;28;20308;-67
2023/01/20 02:13:18;;;;;;;14.38;12.30;;;;;19.70;100004.00;;;;2082738;28;20716;-67
2023/01/20 02:14:24;;;;;;;14.00;12.47;;;;;19.70;99997.00;;;;2074527;28;20214;-67
2023/01/20 02:15:51;;;;;;;13.45;12.05;;;;;19.60;100001.00;;;;2067081;28;20226;-67
2023/01/20 02:17:03;;;;;;;14.43;12.95;;;;;19.70;99999.00;;;;2066118;28;20621;-67
2023/01/20 02:18:16;;;;;;;14.73;13.15;;;;;19.70;99999.00;;;;2064394;28;20218;-68
2023/01/20 02:19:29;;;;;;;13.15;11.75;;;;;19.70;100000.00;;;;2079131;28;20225;-67
2023/01/20 02:20:42;;;;;;;14.30;12.80;;;;;19.70;99998.00;;;;2082905;28;20309;-68
2023/01/20 02:22:09;;;;;;;13.70;12.27;;;;;19.70;100000.00;;;;2082585;28;20711;-67
2023/01/20 02:23:34;;;;;;;15.23;13.60;;;;;19.70;99996.00;;;;2059257;28;20249;-67
2023/01/20 02:24:59;;;;;;;14.00;12.60;;;;;19.70;100012.00;;;;2083354;28;20223;-68
2023/01/20 02:26:24;;;;;;;14.10;12.68;;;;;19.60;100001.00;;;;2084355;28;20554;-67
2023/01/20 02:27:46;;;;;;;15.52;13.98;;;;;19.60;100001.00;;;;2070804;28;20249;-67
2023/01/20 02:28:53;;;;;;;14.05;12.75;;;;;19.60;99997.00;;;;2077232;28;20432;-67
2023/01/20 02:30:07;;;;;;;13.82;12.43;;;;;19.60;100000.00;;;;2081168;28;20588;-67
2023/01/20 02:31:31;;;;;;;13.68;11.63;;;;;19.60;100009.00;;;;2076739;28;20224;-67
2023/01/20 02:32:57;;;;;;;14.52;12.57;;;;;19.60;100010.00;;;;2081106;28;20291;-67
2023/01/20 02:34:07;;;;;;;15.10;12.85;;;;;19.60;100008.00;;;;2084724;28;20304;-67
2023/01/20 02:35:26;;;;;;;14.05;12.65;;;;;19.60;100001.00;;;;2069455;28;20230;-67
2023/01/20 02:36:47;;;;;;;13.35;11.95;;;;;19.60;100013.00;;;;2069002;28;20593;-67
2023/01/20 02:38:10;;;;;;;13.52;12.15;;;;;19.60;100012.00;;;;2075272;28;20236;-67
2023/01/20 02:39:26;;;;;;;13.40;12.10;;;;;19.60;100000.00;;;;2070789;28;20252;-67
2023/01/20 02:40:30;;;;;;;13.65;12.35;;;;;19.50;100012.00;;;;2076116;28;20205;-67
2023/01/20 02:41:38;;;;;;;13.45;12.05;;;;;19.60;100014.00;;;;2068700;28;20213;-67
2023/01/20 02:42:44;;;;;;;14.07;12.68;;;;;19.60;100008.00;;;;2077556;28;20213;-67
2023/01/20 02:44:16;;;;;;;14.18;12.63;;;;;19.60;100020.00;;;;2068096;28;20246;-67
2023/01/20 02:45:28;;;;;;;13.30;11.98;;;;;19.60;100021.00;;;;2075493;28;20316;-67
2023/01/20 02:46:32;;;;;;;13.00;11.70;;;;;19.60;100019.00;;;;2084279;28;20224;-67
2023/01/20 02:47:40;;;;;;;13.98;12.48;;;;;19.60;100014.00;;;;2084265;28;20295;-67
2023/01/20 02:48:46;;;;;;;15.07;13.48;;;;;19.50;100023.00;;;;2068332;28;20674;-67
2023/01/20 02:49:53;;;;;;;15.60;14.05;;;;;19.50;100020.00;;;;2075409;28;20827;-67
2023/01/20 02:51:14;;;;;;;14.68;12.43;;;;;19.50;100015.00;;;;2076576;28;20230;-67
2023/01/20 02:52:17;;;;;;;14.65;13.10;;;;;19.50;100008.00;;;;2070765;28;20708;-67
2023/01/20 02:53:17;;;;;;;13.57;11.35;;;;;19.50;100014.00;;;;2060609;28;20310;-67
2023/01/20 02:54:18;;;;;;;12.97;11.70;;;;;19.50;100025.00;;;;2071551;28;20209;-68
2023/01/20 02:55:29;;;;;;;14.17;12.77;;;;;19.50;100020.00;;;;2068327;28;20219;-67
2023/01/20 02:56:30;;;;;;;12.65;11.40;;;;;19.50;100019.00;;;;2066372;28;20211;-67
2023/01/20 02:57:34;;;;;;;13.63;11.43;;;;;19.50;100026.00;;;;2068300;28;20214;-67
2023/01/20 02:58:55;;;;;;;14.60;13.25;;;;;19.50;100023.00;;;;2067540;28;20706;-68
2023/01/20 03:00:02;;;;;;;13.60;11.90;;;;;19.50;100023.00;;;;2064443;28;20246;-67
2023/01/20 03:01:11;;;;;;;13.68;11.27;;;;;19.50;100025.00;;;;2069444;28;20222;-67
2023/01/20 03:02:17;;;;;;;13.93;12.43;;;;;19.50;100022.00;;;;2076676;28;20301;-67
2023/01/20 03:03:21;;;;;;;13.05;11.65;;;;;19.50;100024.00;;;;2077956;28;20223;-67
2023/01/20 03:04:24;;;;;;;13.40;12.10;;;;;19.50;100030.00;;;;2085804;28;20221;-67
2023/01/20 03:05:32;;;;;;;12.80;11.60;;;;;19.50;100028.00;;;;2084050;28;20283;-67
2023/01/20 03:06:35;;;;;;;12.60;11.40;;;;;19.50;100029.00;;;;2077334;28;20590;-67
2023/01/20 03:07:36;;;;;;;12.75;11.45;;;;;19.50;100034.00;;;;2076680;28;20586;-67
2023/01/20 03:08:36;;;;;;;13.40;12.00;;;;;19.50;100032.00;;;;2067189;28;20222;-68
2023/01/20 03:09:39;;;;;;;13.10;11.80;;;;;19.40;100031.00;;;;2067651;28;20468;-68
2023/01/20 03:10:40;;;;;;;13.32;11.48;;;;;19.50;100039.00;;;;2059973;28;20218;-67
2023/01/20 03:11:44;;;;;;;13.00;11.80;;;;;19.40;100032.00;;;;2067743;28;20201;-67
2023/01/20 03:12:48;;;;;;;13.70;11.57;;;;;19.50;100028.00;;;;2061863;28;20237;-67
2023/01/20 03:13:57;;;;;;;14.73;12.38;;;;;19.40;100031.00;;;;2080505;28;20213;-67
2023/01/20 03:14:57;;;;;;;12.80;11.50;;;;;19.40;100035.00;;;;2068100;28;20238;-67
2023/01/20 03:16:04;;;;;;;12.40;11.10;;;;;19.40;100031.00;;;;2076484;28;20218;-67
2023/01/20 03:17:04;;;;;;;12.82;11.63;;;;;19.40;100037.00;;;;2083586;28;20346;-67
2023/01/20 03:18:04;;;;;;;13.43;12.13;;;;;19.40;100029.00;;;;2075525;28;20879;-67
2023/01/20 03:19:04;;;;;;;13.43;11.57;;;;;19.40;100031.00;;;;2083800;28;20802;-67
2023/01/20 03:20:05;;;;;;;13.87;12.47;;;;;19.40;100036.00;;;;2084630;28;20574;-67
2023/01/20 03:21:07;;;;;;;12.87;11.57;;;;;19.40;100032.00;;;;2084182;28;20550;-67
2023/01/20 03:22:08;;;;;;;12.50;11.27;;;;;19.40;100025.00;;;;2084335;28;20592;-70
2023/01/20 03:23:08;;;;;;;12.50;11.30;;;;;19.40;100029.00;;;;2076373;28;20249;-67
2023/01/20 03:24:09;;;;;;;12.70;11.40;;;;;19.40;100037.00;;;;2084644;28;20228;-68
2023/01/20 03:25:11;;;;;;;12.97;11.73;;;;;19.40;100028.00;;;;2085093;28;20684;-68
2023/01/20 03:26:12;;;;;;;13.23;11.85;;;;;19.30;100035.00;;;;2083992;28;20304;-67
2023/01/20 03:27:13;;;;;;;11.98;10.77;;;;;19.40;100032.00;;;;2083993;28;20226;-67
2023/01/20 03:28:13;;;;;;;12.20;11.00;;;;;19.40;100037.00;;;;2084014;28;20216;-67
2023/01/20 03:29:14;;;;;;;12.73;11.47;;;;;19.40;100045.00;;;;2081997;28;20245;-67
2023/01/20 03:30:15;;;;;;;12.70;11.50;;;;;19.40;100049.00;;;;2084593;28;20217;-68
2023/01/20 03:31:21;;;;;;;12.10;10.30;;;;;19.40;100042.00;;;;2085384;28;20216;-68
2023/01/20 03:32:25;;;;;;;12.20;11.05;;;;;19.40;100042.00;;;;2085191;28;20212;-67
2023/01/20 03:33:25;;;;;;;12.60;11.30;;;;;19.40;100041.00;;;;2078906;28;20285;-67
2023/01/20 03:34:27;;;;;;;13.13;11.87;;;;;19.40;100044.00;;;;2060146;28;20679;-68
2023/01/20 03:35:27;;;;;;;14.35;11.63;;;;;19.30;100035.00;;;;2075590;28;20243;-67
2023/01/20 03:36:28;;;;;;;13.40;12.00;;;;;19.30;100040.00;;;;2078816;28;20210;-67
2023/01/20 03:37:28;;;;;;;11.33;10.23;;;;;19.30;100049.00;;;;2068257;28;20217;-67
2023/01/20 03:38:29;;;;;;;12.70;11.50;;;;;19.30;100039.00;;;;2059952;28;20207;-67
2023/01/20 03:39:29;;;;;;;12.53;11.33;;;;;19.30;100057.00;;;;2068083;28;20210;-67
2023/01/20 03:40:31;;;;;;;11.37;10.23;;;;;19.30;100046.00;;;;2083757;28;20308;-67
2023/01/20 03:41:55;;;;;;;12.48;11.18;;;;;19.30;100049.00;;;;2076680;28;20221;-67
2023/01/20 03:43:00;;;;;;;13.07;11.50;;;;;19.30;100047.00;;;;2078235;28;20213;-68
2023/01/20 03:44:08;;;;;;;12.82;11.30;;;;;19.30;100041.00;;;;2076594;28;20290;-67
2023/01/20 03:45:34;;;;;;;12.20;10.40;;;;;19.30;100047.00;;;;2076470;28;20248;-67
2023/01/20 03:46:51;;;;;;;12.65;11.10;;;;;19.30;100053.00;;;;2067371;28;20217;-67
2023/01/20 03:47:56;;;;;;;11.10;10.00;;;;;19.30;100048.00;;;;2075603;28;20206;-67
2023/01/20 03:49:26;;;;;;;11.55;10.45;;;;;19.30;100054.00;;;;2068577;28;20225;-67
2023/01/20 03:50:52;;;;;;;12.07;10.88;;;;;19.30;100052.00;;;;2081734;28;20211;-67
2023/01/20 03:52:02;;;;;;;11.88;10.68;;;;;19.30;100062.00;;;;2054745;28;20631;-67
2023/01/20 03:53:29;;;;;;;11.85;10.55;;;;;19.30;100052.00;;;;2074422;28;20217;-67
2023/01/20 03:54:33;;;;;;;10.70;9.65;;;;;19.30;100050.00;;;;2078669;28;20240;-67
2023/01/20 03:55:51;;;;;;;11.75;10.23;;;;;19.30;100056.00;;;;2083727;28;20221;-67
2023/01/20 03:56:55;;;;;;;11.38;10.27;;;;;19.30;100049.00;;;;2078067;28;20213;-67
2023/01/20 03:58:02;;;;;;;11.32;10.18;;;;;19.30;100053.00;;;;2067086;28;20251;-67
2023/01/20 03:59:02;;;;;;;12.70;10.95;;;;;19.30;100059.00;;;;2074926;28;20249;-67
2023/01/20 04:00:04;;;;;;;12.20;10.97;;;;;19.30;100057.00;;;;2075688;28;20226;-67
2023/01/20 04:01:06;;;;;;;11.27;10.15;;;;;19.30;100064.00;;;;2075519;28;20273;-67
2023/01/20 04:02:07;;;;;;;11.68;10.48;;;;;19.30;100057.00;;;;2068060;28;20297;-67
2023/01/20 04:03:10;;;;;;;11.43;10.23;;;;;19.30;100063.00;;;;2059020;28;21028;-67
2023/01/20 04:04:16;;;;;;;12.00;10.48;;;;;19.30;100066.00;;;;2059271;28;20219;-68
2023/01/20 04:05:16;;;;;;;11.82;10.52;;;;;19.30;100077.00;;;;2063543;28;20656;-66
2023/01/20 04:06:17;;;;;;;10.23;9.23;;;;;19.20;100077.00;;;;2076507;28;20218;-67
2023/01/20 04:07:20;;;;;;;11.68;10.48;;;;;19.30;100073.00;;;;2084404;28;20312;-67
2023/01/20 04:08:21;;;;;;;11.93;10.82;;;;;19.20;100077.00;;;;2075712;28;20233;-67
2023/01/20 04:09:23;;;;;;;12.07;10.87;;;;;19.20;100075.00;;;;2067674;28;20313;-67
2023/01/20 04:10:23;;;;;;;12.13;10.80;;;;;19.20;100073.00;;;;2059573;28;20207;-67
2023/01/20 04:11:25;;;;;;;11.23;9.97;;;;;19.20;100079.00;;;;2057483;28;20707;-67
2023/01/20 04:12:26;;;;;;;11.82;10.68;;;;;19.20;100084.00;;;;2083716;28;20217;-67
2023/01/20 04:13:26;;;;;;;11.97;10.77;;;;;19.20;100077.00;;;;2085692;28;20210;-67
2023/01/20 04:14:26;;;;;;;11.93;10.73;;;;;19.30;100068.00;;;;2084785;28;20244;-67
2023/01/20 04:15:27;;;;;;;11.63;10.43;;;;;19.20;100080.00;;;;2084199;28;20206;-67
2023/01/20 04:16:27;;;;;;;11.37;10.10;;;;;19.20;100076.00;;;;2076048;28;20213;-67
2023/01/20 04:17:28;;;;;;;11.03;10.03;;;;;19.20;100087.00;;;;2083835;28;20275;-67
2023/01/20 04:18:28;;;;;;;10.97;9.97;;;;;19.20;100077.00;;;;2083014;28;20279;-67
2023/01/20 04:19:28;;;;;;;12.30;11.00;;;;;19.20;100079.00;;;;2083399;28;20271;-67
2023/01/20 04:20:29;;;;;;;12.20;10.90;;;;;19.20;100081.00;;;;2083361;28;20218;-67
2023/01/20 04:21:32;;;;;;;11.73;10.57;;;;;19.20;100087.00;;;;2075191;28;20254;-67
2023/01/20 04:22:48;;;;;;;10.68;9.60;;;;;19.20;100083.00;;;;2076111;28;20211;-67
2023/01/20 04:23:56;;;;;;;11.48;10.38;;;;;19.20;100085.00;;;;2082485;28;20216;-67
2023/01/20 04:25:12;;;;;;;12.05;10.75;;;;;19.20;100082.00;;;;2077324;28;20249;-67
2023/01/20 04:26:12;;;;;;;13.38;11.07;;;;;19.20;100094.00;;;;2077816;28;20217;-67
2023/01/20 04:27:13;;;;;;;11.33;10.23;;;;;19.10;100088.00;;;;2083412;28;20643;-66
2023/01/20 04:28:13;;;;;;;11.60;10.43;;;;;19.10;100088.00;;;;2083679;28;20573;-67
2023/01/20 04:29:13;;;;;;;11.23;10.10;;;;;19.20;100092.00;;;;2084568;28;20647;-67
2023/01/20 04:30:14;;;;;;;12.07;10.77;;;;;19.20;100084.00;;;;2084948;28;20567;-67
2023/01/20 04:31:14;;;;;;;11.37;10.27;;;;;19.20;100068.00;;;;2084717;28;20583;-67
2023/01/20 04:32:14;;;;;;;10.50;9.50;;;;;19.20;100083.00;;;;2084875;28;20627;-67
2023/01/20 04:33:15;;;;;;;11.97;10.53;;;;;19.20;100091.00;;;;2085754;28;20240;-67
2023/01/20 04:34:15;;;;;;;12.47;11.17;;;;;19.10;100088.00;;;;2084002;28;20631;-67
2023/01/20 04:35:17;;;;;;;11.10;9.90;;;;;19.20;100089.00;;;;2083935;28;20228;-67
2023/01/20 04:36:17;;;;;;;11.20;10.00;;;;;19.20;100091.00;;;;2083995;28;20271;-67
2023/01/20 04:37:17;;;;;;;9.80;8.80;;;;;19.20;100086.00;;;;2084637;28;20213;-67
2023/01/20 04:38:18;;;;;;;11.30;10.10;;;;;19.10;100094.00;;;;2084583;28;20271;-67
2023/01/20 04:39:18;;;;;;;11.67;10.43;;;;;19.10;100092.00;;;;2084701;28;20217;-67
2023/01/20 04:40:18;;;;;;;11.37;10.00;;;;;19.20;100101.00;;;;2084766;28;20223;-67
2023/01/20 04:41:19;;;;;;;11.17;10.07;;;;;19.20;100088.00;;;;2084599;28;20212;-67
2023/01/20 04:42:19;;;;;;;11.57;10.40;;;;;19.20;100093.00;;;;2082910;28;20299;-67
2023/01/20 04:43:19;;;;;;;12.77;9.93;;;;;19.20;100096.00;;;;2083837;28;20270;-67
2023/01/20 04:44:20;;;;;;;11.53;10.33;;;;;19.10;100097.00;;;;2083356;28;20552;-67
2023/01/20 04:45:20;;;;;;;11.27;10.07;;;;;19.10;100097.00;;;;2083021;28;22232;-70
2023/01/20 04:46:20;;;;;;;11.80;10.53;;;;;19.10;100092.00;;;;2084801;28;20224;-69
2023/01/20 04:47:21;;;;;;;12.60;10.80;;;;;19.10;100091.00;;;;2084654;28;20209;-68
2023/01/20 04:48:21;;;;;;;10.93;9.80;;;;;19.10;100094.00;;;;2083778;28;20209;-68
2023/01/20 04:49:21;;;;;;;12.40;11.10;;;;;19.10;100097.00;;;;2084518;28;20247;-68
2023/01/20 04:50:22;;;;;;;12.33;11.03;;;;;19.10;100101.00;;;;2084091;28;20279;-67
2023/01/20 04:51:22;;;;;;;11.13;10.00;;;;;19.10;100099.00;;;;2083945;28;20297;-67
2023/01/20 04:52:22;;;;;;;12.87;10.83;;;;;19.10;100103.00;;;;2086335;28;20621;-67
2023/01/20 04:53:23;;;;;;;13.03;11.70;;;;;19.10;100101.00;;;;2084763;28;20297;-67
2023/01/20 04:54:23;;;;;;;11.10;10.00;;;;;19.10;100098.00;;;;2084272;28;20692;-67
2023/01/20 04:55:25;;;;;;;12.10;10.80;;;;;19.10;100106.00;;;;2083785;28;20668;-66
2023/01/20 04:56:25;;;;;;;12.13;10.70;;;;;19.10;100106.00;;;;2083161;28;20609;-67
2023/01/20 04:57:25;;;;;;;11.60;10.40;;;;;19.10;100103.00;;;;2083237;28;20221;-67
2023/01/20 04:58:26;;;;;;;11.63;9.73;;;;;19.10;100107.00;;;;2083915;28;20244;-67
2023/01/20 04:59:26;;;;;;;11.20;10.03;;;;;19.10;100106.00;;;;2084578;28;20216;-67
2023/01/20 05:00:27;;;;;;;10.10;9.20;;;;;19.10;100106.00;;;;2084559;28;20217;-67
2023/01/20 05:01:27;;;;;;;11.10;10.00;;;;;19.10;100107.00;;;;2084519;28;20319;-67
2023/01/20 05:02:28;;;;;;;12.00;10.80;;;;;19.10;100101.00;;;;2084551;28;20791;-68
2023/01/20 05:03:28;;;;;;;11.13;10.03;;;;;19.10;100099.00;;;;2083765;28;20216;-68
2023/01/20 05:04:28;;;;;;;11.70;10.50;;;;;19.10;100102.00;;;;2083526;28;20228;-68
2023/01/20 05:05:29;;;;;;;11.40;10.20;;;;;19.10;100107.00;;;;2083750;28;20217;-68
2023/01/20 05:06:29;;;;;;;11.80;10.60;;;;;19.10;100101.00;;;;2083766;28;20220;-67
2023/01/20 05:07:29;;;;;;;11.70;10.20;;;;;19.10;100105.00;;;;2084558;28;20229;-67
2023/01/20 05:08:29;;;;;;;12.00;10.50;;;;;19.10;100097.00;;;;2084469;28;20209;-67